Terminal Aerodrome Forecast
Issued by NWS

Home | Current Version | Previous Version | Text Only | Print | Product List | Glossary On
Versions: 1 2 3 4 5 6 7 8 9 10 11 12 13 14 15 16 17 18 19 20 21 22 23
000
FTUS46 KEKA 092338
TAFCEC
TAF
KCEC 092338Z 1000/1024 16012KT 4SM -RA BR FEW015 BKN020 OVC040
     FM100200 17014G22KT 2SM -RA BR SCT010 OVC015
     FM100600 18010KT 3SM -RA BR OVC015
     FM101200 23006KT 6SM -RA OVC015
     FM101800 30008KT P6SM VCSH SCT015 OVC040=

USA.gov is the U.S. government's official web portal to all federal, state and local government web resources and services.